Hyundai Republic — A8IL3 — position and weather

sailwx.info

Track history (hours):
 
Tides and Currents Weather Stations Pressure Air Temp Water Temp Dewpoint Dewpoint Depression Visibility Wind Speed Wind Dir Waves Ship Positions

Hyundai Republic

Last reported at 2014-Oct-10 04:15 UTC. Time now 2014-Nov-24 04:03 UTC.
Position N 29°60' E 122°58'.
Warning: this ship's position is 44 days out of date.

Length 305 m; draft 8.3 m.

Type: Ship (hazmat cat A). MMSI: 636090994.

Date/timePositionNaut miles runAvg speedWind from/ knotsBaromVisibWave heightAir tempDewpointWater temp
2014-Oct-10 04:15N 29°60' E 122°58'1211.9
2014-Oct-10 03:15N 29°52' E 122°48'1013.0
2014-Oct-10 02:29N 29°48' E 122°37'8 7.5
2014-Oct-10 01:25N 29°47' E 122°28'0 0.0
2014-Oct-09 22:13N 29°47' E 122°28'0 0.1
2014-Oct-09 21:13N 29°47' E 122°28'0 0.1
2014-Oct-09 19:18N 29°47' E 122°28'0 0.1
2014-Oct-09 18:06N 29°47' E 122°28'0 0.0
2014-Oct-09 16:18N 29°47' E 122°28'0 0.0
2014-Oct-09 12:24N 29°47' E 122°28'0 0.0
2014-Oct-09 11:12N 29°47' E 122°28'0 0.1
2014-Oct-09 10:06N 29°47' E 122°28'0 0.0
2014-Oct-09 08:06N 29°47' E 122°28'0 0.0
2014-Oct-09 05:24N 29°47' E 122°28'0 0.0
2014-Oct-09 04:12N 29°47' E 122°28'0 0.1
2014-Oct-09 03:06N 29°47' E 122°28'0 0.0
2014-Oct-09 01:18N 29°47' E 122°28'0 0.0
2014-Oct-08 23:30N 29°47' E 122°28'0 0.0
2014-Oct-08 22:18N 29°47' E 122°28'0 0.1
2014-Oct-08 21:18N 29°47' E 122°28'0 0.1
2014-Oct-08 19:18N 29°47' E 122°28'0 0.0
2014-Oct-08 17:18N 29°47' E 122°28'0 0.0
2014-Oct-08 11:05N 29°47' E 122°28'0 0.0
2014-Oct-08 10:23N 29°47' E 122°28'0 0.0
2014-Oct-08 09:11N 29°47' E 122°28'0 0.0
2014-Oct-08 03:17N 29°47' E 122°28'0 0.0
2014-Oct-08 00:23N 29°47' E 122°28'0 0.0
2014-Oct-07 23:05N 29°47' E 122°28'0 0.0
2014-Oct-07 21:05N 29°47' E 122°28'0 0.1
2014-Oct-07 20:23N 29°47' E 122°28'0 0.1
2014-Oct-07 19:17N 29°47' E 122°28'0 0.0
2014-Oct-07 09:27N 29°47' E 122°28'9 9.9
2014-Oct-07 08:32N 29°46' E 122°18'9 9.6
2014-Oct-07 07:33N 29°49' E 122°07'7 1.3
2014-Oct-07 02:26N 29°46' E 122°00'0 0.0
2014-Oct-06 19:32N 29°46' E 122°00'0 0.0
2014-Oct-06 17:20N 29°46' E 122°00'0 0.0
2014-Oct-06 13:32N 29°46' E 122°00'2 0.6
2014-Oct-06 09:33N 29°47' E 122°03'1010.2
2014-Oct-06 08:33N 29°48' E 122°14'10 9.8
2014-Oct-06 07:33N 29°44' E 122°24'1111.4
2014-Oct-06 06:33N 29°37' E 122°34'1616.3
2014-Oct-06 05:33N 29°20' E 122°32'41419.3
2014-Oct-05 08:07N 22°49' E 120°00'1322.3
2014-Oct-05 07:33N 22°40' E 120°09'1211.7
2014-Oct-05 06:33N 22°33' E 120°19'0 0.3
2014-Oct-05 05:29N 22°33' E 120°20'0 0.1
2014-Oct-05 04:29N 22°33' E 120°20'0 0.1
2014-Oct-05 03:23N 22°33' E 120°20'0 0.1
2014-Oct-05 02:23N 22°33' E 120°20'0 0.0
2014-Oct-05 01:29N 22°33' E 120°20'0 0.0
2014-Oct-04 20:23N 22°33' E 120°20'4 4.6
2014-Oct-04 19:33N 22°32' E 120°16'1 1.5
2014-Oct-04 18:33N 22°31' E 120°15'0 0.0
2014-Oct-04 17:33N 22°31' E 120°15'0 0.0
2014-Oct-04 16:33N 22°31' E 120°15'0 0.1
2014-Oct-04 15:33N 22°31' E 120°15'0 0.0
2014-Oct-04 14:33N 22°31' E 120°15'0 0.0
2014-Oct-04 13:33N 22°31' E 120°15'0 0.0
2014-Oct-04 12:33N 22°31' E 120°15'0 0.1
2014-Oct-04 11:33N 22°31' E 120°15'0 0.2
2014-Oct-04 10:33N 22°31' E 120°15'0 0.1
2014-Oct-04 09:33N 22°31' E 120°15'0 0.1
2014-Oct-04 08:34N 22°32' E 120°15'0 0.1
2014-Oct-04 07:33N 22°31' E 120°15'3 3.4
2014-Oct-04 06:33N 22°28' E 120°13'1313.0
2014-Oct-04 05:33N 22°18' E 120°04'  
Track history (hours):
 
Tides and Currents Weather Stations Pressure Air Temp Water Temp Dewpoint Dewpoint Depression Visibility Wind Speed Wind Dir Waves Ship Positions

Hyundai Republic

Last reported at 2014-Oct-10 04:15 UTC. Time now 2014-Nov-24 04:03 UTC.
Position N 29°60' E 122°58'.
Warning: this ship's position is 44 days out of date.

Length 305 m; draft 8.3 m.

Type: Ship (hazmat cat A). MMSI: 636090994.

Date/timePositionNaut miles runAvg speedWind from/ knotsBaromVisibWave heightAir tempDewpointWater temp
2014-Oct-10 04:15N 29°60' E 122°58'1211.9
2014-Oct-10 03:15N 29°52' E 122°48'1013.0
2014-Oct-10 02:29N 29°48' E 122°37'8 7.5
2014-Oct-10 01:25N 29°47' E 122°28'0 0.0
2014-Oct-09 22:13N 29°47' E 122°28'0 0.1
2014-Oct-09 21:13N 29°47' E 122°28'0 0.1
2014-Oct-09 19:18N 29°47' E 122°28'0 0.1
2014-Oct-09 18:06N 29°47' E 122°28'0 0.0
2014-Oct-09 16:18N 29°47' E 122°28'0 0.0
2014-Oct-09 12:24N 29°47' E 122°28'0 0.0
2014-Oct-09 11:12N 29°47' E 122°28'0 0.1
2014-Oct-09 10:06N 29°47' E 122°28'0 0.0
2014-Oct-09 08:06N 29°47' E 122°28'0 0.0
2014-Oct-09 05:24N 29°47' E 122°28'0 0.0
2014-Oct-09 04:12N 29°47' E 122°28'0 0.1
2014-Oct-09 03:06N 29°47' E 122°28'0 0.0
2014-Oct-09 01:18N 29°47' E 122°28'0 0.0
2014-Oct-08 23:30N 29°47' E 122°28'0 0.0
2014-Oct-08 22:18N 29°47' E 122°28'0 0.1
2014-Oct-08 21:18N 29°47' E 122°28'0 0.1
2014-Oct-08 19:18N 29°47' E 122°28'0 0.0
2014-Oct-08 17:18N 29°47' E 122°28'0 0.0
2014-Oct-08 11:05N 29°47' E 122°28'0 0.0
2014-Oct-08 10:23N 29°47' E 122°28'0 0.0
2014-Oct-08 09:11N 29°47' E 122°28'0 0.0
2014-Oct-08 03:17N 29°47' E 122°28'0 0.0
2014-Oct-08 00:23N 29°47' E 122°28'0 0.0
2014-Oct-07 23:05N 29°47' E 122°28'0 0.0
2014-Oct-07 21:05N 29°47' E 122°28'0 0.1
2014-Oct-07 20:23N 29°47' E 122°28'0 0.1
2014-Oct-07 19:17N 29°47' E 122°28'0 0.0
2014-Oct-07 09:27N 29°47' E 122°28'9 9.9
2014-Oct-07 08:32N 29°46' E 122°18'9 9.6
2014-Oct-07 07:33N 29°49' E 122°07'7 1.3
2014-Oct-07 02:26N 29°46' E 122°00'0 0.0
2014-Oct-06 19:32N 29°46' E 122°00'0 0.0
2014-Oct-06 17:20N 29°46' E 122°00'0 0.0
2014-Oct-06 13:32N 29°46' E 122°00'2 0.6
2014-Oct-06 09:33N 29°47' E 122°03'1010.2
2014-Oct-06 08:33N 29°48' E 122°14'10 9.8
2014-Oct-06 07:33N 29°44' E 122°24'1111.4
2014-Oct-06 06:33N 29°37' E 122°34'1616.3
2014-Oct-06 05:33N 29°20' E 122°32'41419.3
2014-Oct-05 08:07N 22°49' E 120°00'1322.3
2014-Oct-05 07:33N 22°40' E 120°09'1211.7
2014-Oct-05 06:33N 22°33' E 120°19'0 0.3
2014-Oct-05 05:29N 22°33' E 120°20'0 0.1
2014-Oct-05 04:29N 22°33' E 120°20'0 0.1
2014-Oct-05 03:23N 22°33' E 120°20'0 0.1
2014-Oct-05 02:23N 22°33' E 120°20'0 0.0
2014-Oct-05 01:29N 22°33' E 120°20'0 0.0
2014-Oct-04 20:23N 22°33' E 120°20'4 4.6
2014-Oct-04 19:33N 22°32' E 120°16'1 1.5
2014-Oct-04 18:33N 22°31' E 120°15'0 0.0
2014-Oct-04 17:33N 22°31' E 120°15'0 0.0
2014-Oct-04 16:33N 22°31' E 120°15'0 0.1
2014-Oct-04 15:33N 22°31' E 120°15'0 0.0
2014-Oct-04 14:33N 22°31' E 120°15'0 0.0
2014-Oct-04 13:33N 22°31' E 120°15'0 0.0
2014-Oct-04 12:33N 22°31' E 120°15'0 0.1
2014-Oct-04 11:33N 22°31' E 120°15'0 0.2
2014-Oct-04 10:33N 22°31' E 120°15'0 0.1
2014-Oct-04 09:33N 22°31' E 120°15'0 0.1
2014-Oct-04 08:34N 22°32' E 120°15'0 0.1
2014-Oct-04 07:33N 22°31' E 120°15'3 3.4
2014-Oct-04 06:33N 22°28' E 120°13'1313.0
2014-Oct-04 05:33N 22°18' E 120°04'  

Dump ship's entire track history